Time;durP1;ratioP1;P1;durP2;ratioP2;P2;SDS_P1;SDS_P2;PMS_P1;PMS_P2;Temp;Humidity;BMP_temperature;BMP_pressure;BME280_temperature;BME280_humidity;BME280_pressure;Samples;Min_cycle;Max_cycle;Signal;HPM_P1;HPM_P2
2023/01/12 00:02:11;;;;;;;;;0.50;0.50;;;;;7.88;82.25;99400.44;5035291;28;8939;-58
2023/01/12 00:04:39;;;;;;;;;0.75;0.75;;;;;7.90;81.66;99393.22;5035554;28;8836;-58
2023/01/12 00:07:07;;;;;;;;;1.00;1.00;;;;;7.91;82.05;99403.69;5035355;28;8855;-58
2023/01/12 00:09:35;;;;;;;;;2.50;0.00;;;;;7.94;82.06;99403.47;5035519;28;8836;-56
2023/01/12 00:12:04;;;;;;;;;0.75;0.75;;;;;7.95;81.82;99389.25;5035045;28;8846;-58
2023/01/12 00:14:32;;;;;;;;;0.00;0.00;;;;;7.98;82.22;99396.94;5035487;28;8841;-59
2023/01/12 00:17:00;;;;;;;;;0.00;0.00;;;;;7.98;82.24;99391.66;5035311;28;8844;-58
2023/01/12 00:19:28;;;;;;;;;0.25;0.00;;;;;8.00;82.01;99383.59;5035231;28;8840;-58
2023/01/12 00:22:02;;;;;;;;;0.50;0.00;;;;;8.02;81.83;99382.50;5035368;28;8917;-59
2023/01/12 00:24:30;;;;;;;;;0.00;0.00;;;;;8.03;82.33;99384.19;5035478;28;8849;-58
2023/01/12 00:26:58;;;;;;;;;0.00;0.00;;;;;8.05;82.32;99379.59;5035299;28;8848;-59
2023/01/12 00:29:26;;;;;;;;;0.00;0.00;;;;;8.06;82.01;99389.25;5034651;28;8813;-59
2023/01/12 00:31:54;;;;;;;;;1.00;1.00;;;;;8.08;82.65;99384.69;5035380;28;8843;-56
2023/01/12 00:34:22;;;;;;;;;0.50;0.00;;;;;8.09;82.19;99383.72;5035402;28;8863;-58
2023/01/12 00:36:50;;;;;;;;;0.50;0.50;;;;;8.13;82.16;99392.28;5035167;28;9687;-58
2023/01/12 00:39:17;;;;;;;;;0.00;0.00;;;;;8.14;82.32;99392.13;5034815;28;8904;-58
2023/01/12 00:47:18;;;;;;;;;0.75;0.75;;;;;8.17;81.87;99391.06;5038080;28;8869;-59
2023/01/12 00:49:45;;;;;;;;;0.00;0.00;;;;;8.17;82.60;99380.44;5038543;28;8849;-58
2023/01/12 00:52:13;;;;;;;;;3.75;0.00;;;;;8.16;82.59;99390.22;5038629;28;8847;-58
2023/01/12 00:54:56;;;;;;;;;0.00;0.00;;;;;8.15;82.50;99388.50;5038403;28;9523;-58
2023/01/12 00:57:23;;;;;;;;;1.00;1.00;;;;;8.16;82.85;99394.69;5018286;28;8861;-58
2023/01/12 00:59:53;;;;;;;;;0.00;0.00;;;;;8.15;82.68;99383.22;5018496;28;8849;-58
2023/01/12 01:02:22;;;;;;;;;1.00;1.00;;;;;8.15;82.76;99369.94;5018485;28;8823;-58
2023/01/12 01:04:50;;;;;;;;;0.75;0.50;;;;;8.15;83.01;99362.00;5018468;28;8846;-58
2023/01/12 01:07:20;;;;;;;;;1.00;0.00;;;;;8.14;82.83;99365.63;5037110;28;8829;-58
2023/01/12 01:09:48;;;;;;;;;0.25;0.25;;;;;8.15;83.13;99362.00;5037762;28;8852;-58
2023/01/12 01:12:15;;;;;;;;;0.25;0.25;;;;;8.15;83.10;99356.69;5038132;28;8825;-58
2023/01/12 01:14:43;;;;;;;;;0.00;0.00;;;;;8.15;82.96;99351.41;5038613;28;8829;-58
2023/01/12 01:17:11;;;;;;;;;0.00;0.00;;;;;8.15;83.08;99362.00;5038427;28;8879;-58
2023/01/12 01:19:39;;;;;;;;;0.25;0.25;;;;;8.17;83.66;99362.75;5038457;28;8853;-58
2023/01/12 01:22:06;;;;;;;;;0.00;0.00;;;;;8.20;83.23;99348.44;5038003;28;8859;-58
2023/01/12 01:24:34;;;;;;;;;0.00;0.00;;;;;8.22;83.30;99360.59;5038137;28;8829;-58
2023/01/12 01:27:02;;;;;;;;;0.00;0.00;;;;;8.23;83.13;99353.47;5037842;28;8840;-58
2023/01/12 01:29:30;;;;;;;;;1.00;1.00;;;;;8.24;83.46;99371.94;5038330;28;8837;-58
2023/01/12 01:31:58;;;;;;;;;0.00;0.00;;;;;8.26;83.36;99372.66;5037827;28;8872;-59
2023/01/12 01:34:25;;;;;;;;;3.00;2.50;;;;;8.28;83.24;99373.38;5036894;28;8833;-58
2023/01/12 01:36:53;;;;;;;;;0.50;0.50;;;;;8.29;83.41;99364.44;5036773;28;8874;-58
2023/01/12 01:39:21;;;;;;;;;2.50;2.50;;;;;8.29;83.86;99366.25;5036348;28;8828;-59
2023/01/12 01:41:49;;;;;;;;;0.00;0.00;;;;;8.30;83.54;99349.38;5036885;28;8845;-58
2023/01/12 01:44:16;;;;;;;;;3.50;3.50;;;;;8.30;83.76;99354.69;5037359;28;8828;-59
2023/01/12 01:46:44;;;;;;;;;0.25;0.25;;;;;8.30;84.06;99344.06;5037049;28;8856;-58
2023/01/12 01:49:12;;;;;;;;;0.00;0.00;;;;;8.30;83.79;99354.69;5037429;28;8817;-59
2023/01/12 01:51:39;;;;;;;;;0.50;0.00;;;;;8.29;83.65;99348.53;5036946;28;8808;-58
2023/01/12 01:54:07;;;;;;;;;1.00;0.00;;;;;8.31;83.95;99348.41;5037644;28;8816;-58
2023/01/12 01:56:36;;;;;;;;;0.00;0.00;;;;;8.32;83.46;99345.66;5036438;28;8832;-58
2023/01/12 01:59:04;;;;;;;;;1.00;1.00;;;;;8.33;83.97;99342.03;5037095;28;9447;-58
2023/01/12 02:01:31;;;;;;;;;0.00;0.00;;;;;8.34;83.50;99335.75;5037427;28;8804;-58
2023/01/12 02:03:59;;;;;;;;;1.00;0.25;;;;;8.35;83.93;99342.75;5037491;28;8821;-59
2023/01/12 02:06:28;;;;;;;;;1.00;1.00;;;;;8.38;83.82;99345.13;5037469;28;8827;-58
2023/01/12 02:08:55;;;;;;;;;0.00;0.00;;;;;8.39;83.62;99338.88;5037493;28;8844;-58
2023/01/12 02:16:53;;;;;;;;;2.00;2.00;;;;;8.46;83.96;99312.69;5037331;28;8837;-58
2023/01/12 02:19:21;;;;;;;;;1.00;1.00;;;;;8.49;83.86;99313.28;5036637;28;8832;-58
2023/01/12 02:21:48;;;;;;;;;1.00;1.00;;;;;8.53;83.69;99304.09;5036523;28;8919;-58
2023/01/12 02:24:16;;;;;;;;;1.00;1.00;;;;;8.62;83.93;99310.47;5036843;28;8843;-58
2023/01/12 02:26:44;;;;;;;;;1.50;1.50;;;;;8.69;83.65;99299.25;5036811;28;8841;-58
2023/01/12 02:29:12;;;;;;;;;0.00;0.00;;;;;8.77;83.25;99295.94;5036847;28;9521;-58
2023/01/12 02:31:40;;;;;;;;;1.00;1.00;;;;;8.84;83.16;99295.31;5036653;28;8816;-59
2023/01/12 02:34:08;;;;;;;;;0.25;0.25;;;;;8.92;83.01;99289.38;5036849;28;8839;-56
2023/01/12 02:36:36;;;;;;;;;0.50;0.50;;;;;8.95;83.25;99287.28;5036896;28;8848;-57
2023/01/12 02:39:03;;;;;;;;;1.00;1.00;;;;;8.93;82.64;99296.34;5036661;28;8832;-58
2023/01/12 02:44:13;;;;;;;;;1.50;1.50;;;;;8.80;82.97;99291.22;5036132;28;9532;-58
2023/01/12 02:46:40;;;;;;;;;1.00;1.00;;;;;8.79;83.72;99288.69;5036311;28;8821;-58
2023/01/12 02:49:08;;;;;;;;;0.00;0.00;;;;;8.74;83.67;99289.06;5036783;28;8832;-57
2023/01/12 02:51:36;;;;;;;;;2.00;2.00;;;;;8.72;83.56;99287.50;5036208;28;8821;-59
2023/01/12 02:54:04;;;;;;;;;0.25;0.25;;;;;8.70;83.84;99279.69;5036399;28;8931;-58
2023/01/12 02:56:31;;;;;;;;;0.00;0.00;;;;;8.68;83.40;99260.38;5036389;28;8847;-56
2023/01/12 02:58:59;;;;;;;;;1.00;0.75;;;;;8.67;83.50;99265.84;5036316;28;8821;-59
2023/01/12 03:01:27;;;;;;;;;0.00;0.00;;;;;8.65;83.68;99263.31;5035981;28;8938;-58
2023/01/12 03:03:55;;;;;;;;;1.50;1.00;;;;;8.64;83.52;99256.31;5036486;28;8962;-58
2023/01/12 03:06:22;;;;;;;;;3.00;3.00;;;;;8.64;83.86;99263.41;5035643;28;8825;-59
2023/01/12 03:08:50;;;;;;;;;3.00;2.00;;;;;8.62;84.17;99239.69;5036429;28;8922;-58
2023/01/12 03:11:18;;;;;;;;;2.00;1.00;;;;;8.62;83.88;99239.69;5035829;28;8805;-59
2023/01/12 03:13:46;;;;;;;;;0.00;0.00;;;;;8.62;84.00;99268.00;5036329;28;9556;-57
2023/01/12 03:16:14;;;;;;;;;0.00;0.00;;;;;8.61;84.47;99245.97;5036047;28;8848;-58
2023/01/12 03:18:41;;;;;;;;;3.00;1.00;;;;;8.60;84.29;99246.91;5035994;28;8855;-57
2023/01/12 03:21:09;;;;;;;;;0.00;0.00;;;;;8.60;84.02;99248.72;5035572;28;8840;-57
2023/01/12 03:23:37;;;;;;;;;0.00;0.00;;;;;8.60;84.32;99246.91;5035738;28;8833;-58
2023/01/12 03:26:04;;;;;;;;;0.00;0.00;;;;;8.59;84.40;99250.53;5035652;28;8832;-58
2023/01/12 03:28:33;;;;;;;;;1.00;1.00;;;;;8.58;84.48;99238.22;5035939;28;8836;-59
2023/01/12 03:31:02;;;;;;;;;1.00;1.00;;;;;8.55;84.46;99233.19;5035433;28;8910;-58
2023/01/12 03:33:29;;;;;;;;;2.50;2.50;;;;;8.55;84.46;99238.50;5035709;28;8839;-58
2023/01/12 03:35:57;;;;;;;;;1.50;0.50;;;;;8.54;84.58;99238.63;5035801;28;8944;-58
2023/01/12 03:38:25;;;;;;;;;1.00;1.00;;;;;8.53;84.37;99229.81;5035622;28;8836;-58
2023/01/12 03:40:53;;;;;;;;;0.00;0.00;;;;;8.51;84.59;99215.81;5035733;28;8813;-58
2023/01/12 03:43:20;;;;;;;;;1.00;1.00;;;;;8.49;84.79;99215.13;5035796;28;8910;-58
2023/01/12 03:45:48;;;;;;;;;0.25;0.25;;;;;8.46;84.67;99212.72;5035740;28;8828;-58
2023/01/12 03:48:15;;;;;;;;;1.00;1.00;;;;;8.44;85.23;99225.25;5035801;28;8864;-58
2023/01/12 03:50:43;;;;;;;;;0.00;0.00;;;;;8.42;85.34;99226.34;5035623;28;8844;-58
2023/01/12 03:53:11;;;;;;;;;0.00;0.00;;;;;8.39;85.42;99211.56;5035978;28;8833;-57
2023/01/12 03:55:39;;;;;;;;;0.00;0.00;;;;;8.37;85.40;99217.94;5035857;28;8821;-58
2023/01/12 03:58:07;;;;;;;;;0.25;0.25;;;;;8.34;85.55;99203.13;5035596;28;8906;-57
2023/01/12 04:00:34;;;;;;;;;0.00;0.00;;;;;8.33;85.83;99200.59;5034720;28;8854;-57
2023/01/12 04:03:02;;;;;;;;;0.75;0.75;;;;;8.32;86.25;99201.56;5035205;28;8817;-58
2023/01/12 04:05:30;;;;;;;;;0.00;0.00;;;;;8.30;86.06;99199.03;5035744;28;8856;-58
2023/01/12 04:07:58;;;;;;;;;1.00;0.00;;;;;8.30;86.34;99196.38;5035479;28;8824;-58
2023/01/12 04:10:25;;;;;;;;;0.75;0.75;;;;;8.29;85.92;99184.09;5035302;28;8817;-56
2023/01/12 04:12:53;;;;;;;;;0.00;0.00;;;;;8.29;86.12;99188.56;5035334;28;8833;-56
2023/01/12 04:15:21;;;;;;;;;0.00;0.00;;;;;8.28;86.12;99197.50;5035650;28;8832;-57
2023/01/12 04:17:49;;;;;;;;;0.00;0.00;;;;;8.27;86.21;99180.72;5035543;28;8828;-56
2023/01/12 04:20:16;;;;;;;;;0.00;0.00;;;;;8.26;86.16;99179.03;5038406;28;8833;-57
2023/01/12 04:22:43;;;;;;;;;0.75;0.75;;;;;8.25;86.08;99182.66;5039386;28;8837;-55
2023/01/12 04:25:10;;;;;;;;;0.00;0.00;;;;;8.24;86.36;99178.34;5039069;28;8832;-58
2023/01/12 04:27:38;;;;;;;;;0.00;0.00;;;;;8.25;86.56;99176.50;5038766;28;8813;-57
2023/01/12 04:30:06;;;;;;;;;0.00;0.00;;;;;8.26;86.34;99167.56;5038772;28;8820;-57
2023/01/12 04:32:34;;;;;;;;;1.00;0.00;;;;;8.25;86.30;99152.63;5038678;28;8839;-55
2023/01/12 04:35:01;;;;;;;;;0.00;0.00;;;;;8.26;86.97;99149.88;5038720;28;9250;-57
2023/01/12 04:37:29;;;;;;;;;0.00;0.00;;;;;8.26;86.77;99157.81;5038380;28;8812;-57
2023/01/12 04:39:57;;;;;;;;;0.00;0.00;;;;;8.28;86.63;99145.28;5038498;28;8809;-55
2023/01/12 04:45:10;;;;;;;;;0.00;0.00;;;;;8.29;86.51;99136.34;5038584;28;8914;-57
2023/01/12 04:47:38;;;;;;;;;0.00;0.00;;;;;8.30;86.17;99138.03;5038253;28;8868;-55
2023/01/12 04:50:05;;;;;;;;;0.00;0.00;;;;;8.31;86.35;99131.78;5038239;28;8820;-55
2023/01/12 04:52:33;;;;;;;;;0.25;0.00;;;;;8.32;86.46;99135.25;5038306;28;8832;-57
2023/01/12 04:55:00;;;;;;;;;0.00;0.00;;;;;8.32;86.51;99109.59;5038204;28;8820;-58
2023/01/12 04:57:28;;;;;;;;;0.00;0.00;;;;;8.33;86.54;99121.88;5038136;28;8840;-57
2023/01/12 04:59:55;;;;;;;;;0.00;0.00;;;;;8.33;86.63;99127.19;5038481;28;8848;-57
2023/01/12 05:02:23;;;;;;;;;0.25;0.25;;;;;8.33;86.40;99111.25;5038650;28;8844;-55
2023/01/12 05:04:51;;;;;;;;;0.00;0.00;;;;;8.33;86.57;99105.09;5038585;28;8813;-58
2023/01/12 05:07:19;;;;;;;;;0.00;0.00;;;;;8.32;86.76;99106.94;5038160;28;8816;-58
2023/01/12 05:12:31;;;;;;;;;0.25;0.00;;;;;8.32;86.90;99085.72;5037961;28;8883;-57
2023/01/12 05:14:59;;;;;;;;;0.00;0.00;;;;;8.32;86.62;99091.03;5037211;28;8832;-56
2023/01/12 05:17:27;;;;;;;;;1.00;0.00;;;;;8.32;86.86;99077.75;5038131;28;8840;-57
2023/01/12 05:19:55;;;;;;;;;0.00;0.00;;;;;8.32;86.72;99085.72;5018510;28;8842;-57
2023/01/12 05:22:22;;;;;;;;;0.00;0.00;;;;;8.32;86.64;99075.09;5018060;28;8866;-56
2023/01/12 05:24:50;;;;;;;;;0.00;0.00;;;;;8.32;87.16;99090.16;5035835;28;8836;-57
2023/01/12 05:27:18;;;;;;;;;0.00;0.00;;;;;8.30;86.92;99063.75;5037872;28;8836;-57
2023/01/12 05:29:45;;;;;;;;;0.00;0.00;;;;;8.30;86.98;99063.75;5037335;28;8855;-57
2023/01/12 05:32:13;;;;;;;;;0.00;0.00;;;;;8.31;86.86;99056.66;5037943;28;8906;-54
2023/01/12 05:34:41;;;;;;;;;0.00;0.00;;;;;8.29;87.28;99062.09;5037589;28;8828;-57
2023/01/12 05:37:08;;;;;;;;;0.00;0.00;;;;;8.29;87.28;99059.44;5037661;28;8836;-56
2023/01/12 05:39:37;;;;;;;;;0.00;0.00;;;;;8.29;86.75;99051.47;5037061;28;8820;-55
2023/01/12 05:44:49;;;;;;;;;0.00;0.00;;;;;8.27;87.00;99042.81;5037328;28;8871;-57
2023/01/12 05:47:17;;;;;;;;;0.00;0.00;;;;;8.25;86.75;99044.75;5037128;28;8841;-57
2023/01/12 05:49:45;;;;;;;;;0.00;0.00;;;;;8.24;86.89;99031.63;5036433;28;8812;-56
2023/01/12 05:52:13;;;;;;;;;0.00;0.00;;;;;8.23;87.01;99036.09;5036617;28;8883;-57
2023/01/12 05:54:40;;;;;;;;;0.00;0.00;;;;;8.21;87.09;99027.41;5036487;28;8867;-56
2023/01/12 05:57:08;;;;;;;;;0.00;0.00;;;;;8.21;87.24;99006.19;5035527;28;8851;-57
2023/01/12 05:59:36;;;;;;;;;0.00;0.00;;;;;8.20;86.89;99019.63;5035234;28;8844;-56
2023/01/12 06:02:04;;;;;;;;;0.00;0.00;;;;;8.18;87.00;99013.53;5034874;28;8856;-54
2023/01/12 06:04:31;;;;;;;;;0.00;0.00;;;;;8.17;86.85;99011.88;5035500;28;8874;-56
2023/01/12 06:06:59;;;;;;;;;0.00;0.00;;;;;8.14;87.35;99015.63;5035228;28;8813;-56
2023/01/12 06:09:27;;;;;;;;;1.00;0.00;;;;;8.14;87.28;99006.84;5034379;28;8833;-55
2023/01/12 06:14:40;;;;;;;;;0.00;0.00;;;;;8.07;87.17;99001.19;5035101;28;8833;-56
2023/01/12 06:17:08;;;;;;;;;0.00;0.00;;;;;8.07;87.36;99011.78;5034576;28;8861;-56
2023/01/12 06:19:35;;;;;;;;;0.00;0.00;;;;;8.06;87.66;99001.34;5034348;28;8829;-56
2023/01/12 06:22:03;;;;;;;;;0.50;0.00;;;;;8.04;87.55;99004.13;5034568;28;8860;-57
2023/01/12 06:24:31;;;;;;;;;0.00;0.00;;;;;8.02;87.43;98990.16;5034425;28;8840;-55
2023/01/12 06:26:59;;;;;;;;;0.00;0.00;;;;;8.00;86.89;98981.47;5034774;28;9869;-56
2023/01/12 06:29:26;;;;;;;;;0.00;0.00;;;;;8.00;87.48;99005.31;5034028;28;8832;-55
2023/01/12 06:31:54;;;;;;;;;0.00;0.00;;;;;7.97;86.95;98987.03;5033544;28;8843;-55
2023/01/12 06:34:22;;;;;;;;;0.00;0.00;;;;;7.94;87.43;98984.66;5034196;28;8837;-55
2023/01/12 06:36:49;;;;;;;;;0.00;0.00;;;;;7.93;87.25;98971.53;5033464;28;8840;-56
2023/01/12 06:39:18;;;;;;;;;0.00;0.00;;;;;7.90;87.48;98980.56;5032394;28;8863;-57
2023/01/12 06:44:31;;;;;;;;;0.00;0.00;;;;;7.83;87.31;98971.44;5033752;28;8848;-56
2023/01/12 06:46:59;;;;;;;;;0.00;0.00;;;;;7.81;87.24;98962.81;5034581;28;8849;-56
2023/01/12 06:49:27;;;;;;;;;0.00;0.00;;;;;7.80;87.60;98963.78;5034616;28;8828;-55
2023/01/12 06:51:55;;;;;;;;;0.00;0.00;;;;;7.79;87.28;98953.28;5033424;28;8865;-56
2023/01/12 06:54:22;;;;;;;;;0.00;0.00;;;;;7.79;87.58;98950.63;5033890;28;8836;-55
2023/01/12 06:56:50;;;;;;;;;0.00;0.00;;;;;7.79;87.64;98945.34;5033640;28;8847;-55
2023/01/12 06:59:18;;;;;;;;;0.00;0.00;;;;;7.79;87.38;98961.25;5034022;28;8841;-55
2023/01/12 07:01:46;;;;;;;;;0.00;0.00;;;;;7.81;87.38;98977.84;5033979;28;8837;-56
2023/01/12 07:04:14;;;;;;;;;0.00;0.00;;;;;7.82;87.87;98956.53;5033363;28;8980;-56
2023/01/12 07:06:42;;;;;;;;;0.00;0.00;;;;;7.84;87.79;98943.97;5033723;28;8851;-56
2023/01/12 07:09:09;;;;;;;;;0.00;0.00;;;;;7.85;87.51;98953.59;5034077;28;8848;-56
2023/01/12 07:11:37;;;;;;;;;0.00;0.00;;;;;7.87;87.35;98930.50;5033612;28;8833;-55
2023/01/12 07:14:05;;;;;;;;;0.00;0.00;;;;;7.90;87.41;98926.75;5032969;28;8980;-56
2023/01/12 07:16:35;;;;;;;;;0.00;0.00;;;;;7.92;87.27;98922.97;5032660;28;8967;-55
2023/01/12 07:19:03;;;;;;;;;0.00;0.00;;;;;7.94;87.56;98926.34;5032919;28;8832;-56
2023/01/12 07:21:31;;;;;;;;;0.00;0.00;;;;;7.96;87.31;98927.06;5032840;28;8848;-57
2023/01/12 07:23:58;;;;;;;;;0.00;0.00;;;;;7.99;87.39;98925.94;5033318;28;9865;-57
2023/01/12 07:26:28;;;;;;;;;0.00;0.00;;;;;8.00;87.39;98917.84;5033816;28;8824;-55
2023/01/12 07:28:56;;;;;;;;;0.00;0.00;;;;;8.03;87.20;98930.00;5033875;28;8856;-55
2023/01/12 07:31:24;;;;;;;;;0.00;0.00;;;;;8.05;87.21;98934.22;5033315;28;8844;-54
2023/01/12 07:33:52;;;;;;;;;0.00;0.00;;;;;8.07;87.03;98928.78;5033343;28;8837;-56
2023/01/12 07:36:20;;;;;;;;;0.00;0.00;;;;;8.08;87.47;98923.38;5032917;28;8857;-56
2023/01/12 07:38:48;;;;;;;;;0.00;0.00;;;;;8.09;87.58;98909.13;5033520;28;8844;-56
2023/01/12 07:43:57;;;;;;;;;0.00;0.00;;;;;8.13;87.46;98950.31;5032813;28;9011;-56
2023/01/12 07:46:25;;;;;;;;;0.00;0.00;;;;;8.15;87.51;98952.84;5033757;28;8863;-56
2023/01/12 07:48:53;;;;;;;;;0.00;0.00;;;;;8.16;87.32;98942.09;5033871;28;8832;-57
2023/01/12 07:51:21;;;;;;;;;0.00;0.00;;;;;8.18;87.76;98939.28;5033830;28;8860;-57
2023/01/12 07:53:49;;;;;;;;;0.00;0.00;;;;;8.19;87.60;98948.97;5034367;28;8841;-56
2023/01/12 07:56:17;;;;;;;;;0.00;0.00;;;;;8.21;87.79;98942.56;5037181;28;8908;-57
2023/01/12 07:58:45;;;;;;;;;0.00;0.00;;;;;8.22;87.62;98938.94;5037221;28;8848;-57
2023/01/12 08:01:14;;;;;;;;;0.00;0.00;;;;;8.23;87.81;98940.63;5037038;28;8871;-57
2023/01/12 08:03:41;;;;;;;;;0.00;0.00;;;;;8.26;87.46;98945.66;5037084;28;8840;-57
2023/01/12 08:06:09;;;;;;;;;0.00;0.00;;;;;8.26;87.64;98935.06;5037182;28;8828;-57
2023/01/12 08:08:38;;;;;;;;;0.00;0.00;;;;;8.27;87.80;98936.72;5036128;28;8844;-55
2023/01/12 08:11:05;;;;;;;;;0.00;0.00;;;;;8.29;87.54;98937.44;5036866;28;8935;-56
2023/01/12 08:13:33;;;;;;;;;0.00;0.00;;;;;8.32;87.60;98939.84;5037441;28;9688;-55
2023/01/12 08:16:05;;;;;;;;;0.00;0.00;;;;;8.34;87.85;98939.69;5037113;28;8832;-56
2023/01/12 08:18:33;;;;;;;;;0.00;0.00;;;;;8.37;87.49;98956.16;5037588;28;9785;-56
2023/01/12 08:21:00;;;;;;;;;0.00;0.00;;;;;8.39;87.23;98948.09;5037906;28;8845;-56
2023/01/12 08:23:28;;;;;;;;;0.00;0.00;;;;;8.41;87.43;98944.34;5037831;28;8845;-56
2023/01/12 08:25:58;;;;;;;;;0.00;0.00;;;;;8.42;87.18;98948.66;5037144;28;8926;-57
2023/01/12 08:28:26;;;;;;;;;0.00;0.00;;;;;8.43;87.76;98929.13;5037129;28;8875;-56
2023/01/12 08:30:54;;;;;;;;;0.00;0.00;;;;;8.47;87.44;98940.31;5037547;28;8840;-55
2023/01/12 08:33:22;;;;;;;;;0.00;0.00;;;;;8.50;87.58;98938.22;5037490;28;8824;-56
2023/01/12 08:35:49;;;;;;;;;0.00;0.00;;;;;8.53;87.73;98932.63;5037621;28;8867;-55
2023/01/12 08:38:18;;;;;;;;;0.00;0.00;;;;;8.57;87.61;98938.53;5037878;28;8926;-56
2023/01/12 08:46:16;;;;;;;;;0.00;0.00;;;;;8.66;87.40;98933.25;5027879;28;8873;-56
2023/01/12 08:48:44;;;;;;;;;0.00;0.00;;;;;8.69;87.32;98938.31;5037615;28;8840;-56
2023/01/12 08:51:12;;;;;;;;;0.00;0.00;;;;;8.72;87.44;98932.72;5036609;28;8836;-56
2023/01/12 08:53:40;;;;;;;;;0.00;0.00;;;;;8.76;87.26;98942.09;5036975;28;8840;-57
2023/01/12 08:56:08;;;;;;;;;0.25;0.25;;;;;8.79;87.59;98941.81;5037384;28;8841;-56
2023/01/12 08:58:37;;;;;;;;;0.00;0.00;;;;;8.82;87.14;98936.22;5037088;28;8844;-56
2023/01/12 09:01:06;;;;;;;;;0.00;0.00;;;;;8.86;87.19;98945.63;5037561;28;8832;-56
2023/01/12 09:03:34;;;;;;;;;0.00;0.00;;;;;8.89;87.41;98939.19;5037186;28;8848;-56
2023/01/12 09:06:02;;;;;;;;;0.00;0.00;;;;;8.92;87.38;98936.25;5036416;28;8836;-56
2023/01/12 09:08:30;;;;;;;;;0.00;0.00;;;;;8.96;87.45;98940.34;5037205;28;8817;-55
2023/01/12 09:10:58;;;;;;;;;0.00;0.00;;;;;9.00;87.43;98952.34;5037449;28;8930;-56
2023/01/12 09:13:28;;;;;;;;;0.00;0.00;;;;;9.03;87.35;98946.78;5036641;28;8951;-56
2023/01/12 09:15:55;;;;;;;;;0.00;0.00;;;;;9.07;87.24;98948.16;5036861;28;9661;-56
2023/01/12 09:18:38;;;;;;;;;0.00;0.00;;;;;9.12;87.59;98945.97;5036632;28;8999;-56
2023/01/12 09:21:06;;;;;;;;;1.00;0.00;;;;;9.17;87.83;98935.75;5036911;28;8840;-56
2023/01/12 09:23:36;;;;;;;;;0.00;0.00;;;;;9.21;87.08;98945.13;5035956;28;8844;-57
2023/01/12 09:26:03;;;;;;;;;0.00;0.00;;;;;9.26;87.03;98953.53;5036682;28;8832;-56
2023/01/12 09:28:31;;;;;;;;;0.25;0.25;;;;;9.29;87.35;98935.50;5036728;28;9589;-56
2023/01/12 09:30:59;;;;;;;;;0.00;0.00;;;;;9.33;87.33;98947.50;5036628;28;8844;-55
2023/01/12 09:33:27;;;;;;;;;1.00;0.50;;;;;9.36;87.44;98947.25;5036216;28;9539;-56
2023/01/12 09:35:56;;;;;;;;;0.50;0.50;;;;;9.39;87.14;98956.72;5036344;28;8970;-56
2023/01/12 09:38:24;;;;;;;;;0.00;0.00;;;;;9.41;86.97;98957.47;5036358;28;8907;-55
2023/01/12 09:40:51;;;;;;;;;0.00;0.00;;;;;9.44;86.78;98963.34;5036321;28;8840;-57
2023/01/12 09:49:01;;;;;;;;;1.00;1.00;;;;;9.52;87.57;98968.78;5027066;28;8947;-56
2023/01/12 09:51:29;;;;;;;;;0.75;0.00;;;;;9.56;87.42;98977.31;5034628;28;8849;-56
2023/01/12 09:53:57;;;;;;;;;0.00;0.00;;;;;9.57;87.21;98995.78;5035261;28;8844;-56
2023/01/12 09:56:25;;;;;;;;;0.00;0.00;;;;;9.58;87.37;98981.50;5035412;28;8959;-57
2023/01/12 09:58:53;;;;;;;;;0.00;0.00;;;;;9.60;87.14;98984.03;5035268;28;9337;-56
2023/01/12 10:01:21;;;;;;;;;0.00;0.00;;;;;9.62;87.49;98980.25;5035760;28;8866;-56
2023/01/12 10:03:56;;;;;;;;;0.00;0.00;;;;;9.64;87.46;98980.94;5035459;28;8876;-57
2023/01/12 10:06:24;;;;;;;;;0.00;0.00;;;;;9.64;86.96;98972.97;5035227;28;8832;-56
2023/01/12 10:08:52;;;;;;;;;0.00;0.00;;;;;9.66;87.69;98989.59;5035604;28;8844;-55
2023/01/12 10:11:21;;;;;;;;;0.00;0.00;;;;;9.68;87.12;98985.00;5035126;28;8820;-54
2023/01/12 10:13:49;;;;;;;;;0.00;0.00;;;;;9.69;87.32;98994.66;5034879;28;9799;-57
2023/01/12 10:16:17;;;;;;;;;0.00;0.00;;;;;9.70;86.95;99001.66;5034314;28;8854;-57
2023/01/12 10:18:47;;;;;;;;;0.00;0.00;;;;;9.72;87.05;98999.69;5035104;28;8970;-57
2023/01/12 10:21:16;;;;;;;;;0.00;0.00;;;;;9.73;87.42;98995.22;5034944;28;9015;-57
2023/01/12 10:23:44;;;;;;;;;1.50;1.00;;;;;9.75;87.32;98993.25;5034590;28;8972;-57
2023/01/12 10:26:12;;;;;;;;;1.00;0.00;;;;;9.77;87.31;99000.13;5035223;28;8853;-57
2023/01/12 10:28:40;;;;;;;;;1.00;0.00;;;;;9.79;87.45;99006.13;5035211;28;8849;-57
2023/01/12 10:31:08;;;;;;;;;0.00;0.00;;;;;9.82;87.47;99000.56;5035273;28;8849;-56
2023/01/12 10:33:36;;;;;;;;;0.50;0.50;;;;;9.83;87.49;98996.06;5035027;28;8880;-56
2023/01/12 10:36:05;;;;;;;;;0.25;0.25;;;;;9.86;87.02;98993.94;5035018;28;8995;-57
2023/01/12 10:38:34;;;;;;;;;0.00;0.00;;;;;9.89;86.87;98995.50;5033949;28;8841;-57
2023/01/12 10:41:02;;;;;;;;;0.00;0.00;;;;;9.89;87.23;99012.31;5033871;28;8829;-56
2023/01/12 10:43:32;;;;;;;;;0.00;0.00;;;;;9.92;87.37;98998.72;5033910;28;8857;-57
2023/01/12 10:46:01;;;;;;;;;0.75;0.75;;;;;9.93;87.48;99010.22;5033893;28;8975;-57
2023/01/12 10:48:29;;;;;;;;;0.00;0.00;;;;;9.93;87.37;99002.22;5034072;28;8861;-57
2023/01/12 10:50:58;;;;;;;;;0.25;0.25;;;;;9.95;87.34;98995.75;5033494;28;8930;-58
2023/01/12 10:53:26;;;;;;;;;0.50;0.50;;;;;9.97;86.97;99009.78;5034553;28;8953;-57
2023/01/12 10:55:54;;;;;;;;;0.00;0.00;;;;;9.98;86.84;99003.47;5035050;28;8865;-57
2023/01/12 10:58:23;;;;;;;;;0.00;0.00;;;;;10.01;87.06;99005.03;5042921;28;8826;-56
2023/01/12 11:00:52;;;;;;;;;1.00;1.00;;;;;10.01;86.93;98994.38;5054537;28;8855;-56
2023/01/12 11:03:20;;;;;;;;;0.00;0.00;;;;;10.03;87.13;98997.75;5055230;28;8852;-56
2023/01/12 11:05:49;;;;;;;;;0.00;0.00;;;;;10.03;86.96;99003.91;5055369;28;8850;-56
2023/01/12 11:08:16;;;;;;;;;0.00;0.00;;;;;10.04;86.73;99002.09;5054963;28;8866;-57
2023/01/12 11:10:45;;;;;;;;;0.00;0.00;;;;;10.06;86.97;99003.63;5055129;28;8889;-55
2023/01/12 11:13:13;;;;;;;;;0.00;0.00;;;;;10.06;86.73;98987.69;5054988;28;8854;-56
2023/01/12 11:15:41;;;;;;;;;1.00;1.00;;;;;10.06;87.05;99011.63;5057803;28;8972;-57
2023/01/12 11:18:10;;;;;;;;;0.00;0.00;;;;;10.05;87.48;99001.97;5054602;28;8857;-58
2023/01/12 11:20:38;;;;;;;;;0.00;0.00;;;;;10.06;87.49;98995.66;5054862;28;8864;-57
2023/01/12 11:23:06;;;;;;;;;0.00;0.00;;;;;10.07;87.57;99002.66;5053814;28;8855;-57
2023/01/12 11:25:34;;;;;;;;;0.00;0.00;;;;;10.09;87.11;98992.69;5053842;28;8850;-58
2023/01/12 11:28:02;;;;;;;;;0.00;0.00;;;;;10.10;86.92;98999.69;5053817;28;9542;-55
2023/01/12 11:30:30;;;;;;;;;0.00;0.00;;;;;10.12;87.09;98991.59;5053651;28;8842;-57
2023/01/12 11:32:58;;;;;;;;;0.00;0.00;;;;;10.13;87.18;99002.09;5053859;28;8885;-56
2023/01/12 11:35:26;;;;;;;;;0.75;0.00;;;;;10.15;87.50;98991.28;5053256;28;8838;-57
2023/01/12 11:37:54;;;;;;;;;0.00;0.00;;;;;10.15;87.74;98981.50;5053057;28;8908;-56
2023/01/12 11:40:22;;;;;;;;;0.00;0.00;;;;;10.16;86.99;98980.50;5052830;28;8831;-56
2023/01/12 11:45:37;;;;;;;;;0.00;0.00;;;;;10.17;87.37;98984.03;5051435;28;8882;-57
2023/01/12 11:48:05;;;;;;;;;0.00;0.00;;;;;10.17;87.26;98984.84;5052361;28;8873;-57
2023/01/12 11:50:33;;;;;;;;;0.00;0.00;;;;;10.16;87.13;98983.16;5051547;28;8857;-57
2023/01/12 11:53:04;;;;;;;;;0.00;0.00;;;;;10.19;87.63;98993.53;5052047;28;8857;-57
2023/01/12 11:55:32;;;;;;;;;0.00;0.00;;;;;10.20;87.23;98975.75;5051636;28;8850;-57
2023/01/12 11:58:01;;;;;;;;;0.00;0.00;;;;;10.20;87.20;98975.75;5051353;28;8842;-57
2023/01/12 12:00:29;;;;;;;;;0.00;0.00;;;;;10.21;87.07;98969.44;5051066;28;8842;-57
2023/01/12 12:02:57;;;;;;;;;0.00;0.00;;;;;10.17;87.11;98968.88;5051741;28;8870;-57
2023/01/12 12:05:25;;;;;;;;;0.00;0.00;;;;;10.17;87.58;98979.53;5050893;28;8935;-57
2023/01/12 12:07:53;;;;;;;;;0.00;0.00;;;;;10.18;87.19;98970.56;5050836;28;8856;-57
2023/01/12 12:10:22;;;;;;;;;0.00;0.00;;;;;10.17;87.74;98968.06;5051451;28;8822;-57
2023/01/12 12:12:50;;;;;;;;;0.00;0.00;;;;;10.18;87.53;98969.75;5052154;28;8850;-56
2023/01/12 12:15:18;;;;;;;;;0.00;0.00;;;;;10.19;87.57;98966.94;5052086;28;8850;-57
2023/01/12 12:17:46;;;;;;;;;0.00;0.00;;;;;10.19;87.32;98969.59;5052481;28;8873;-57
2023/01/12 12:20:14;;;;;;;;;1.00;0.25;;;;;10.20;87.73;98973.09;5051798;28;8822;-57
2023/01/12 12:22:42;;;;;;;;;0.00;0.00;;;;;10.18;87.97;98967.91;5052289;28;8842;-57
2023/01/12 12:25:10;;;;;;;;;0.00;0.00;;;;;10.18;87.45;98969.75;5052680;28;8854;-56
2023/01/12 12:27:38;;;;;;;;;0.00;0.00;;;;;10.17;87.40;98968.88;5051939;28;8849;-57
2023/01/12 12:30:06;;;;;;;;;0.00;0.00;;;;;10.18;87.49;98970.56;5052262;28;8888;-56
2023/01/12 12:32:35;;;;;;;;;0.00;0.00;;;;;10.18;87.85;98969.75;5051922;28;8830;-57
2023/01/12 12:35:03;;;;;;;;;0.00;0.00;;;;;10.18;87.97;98972.41;5051190;28;8880;-55
2023/01/12 12:37:31;;;;;;;;;0.00;0.00;;;;;10.18;87.99;98967.91;5036412;28;8971;-56